LHPR/QGY METAR and TAF weather

Enter ICAO airport designator
Station Type Date Time Source
LHPR METAR 2021/03/06 04:45 UTC NOAA

LHPR 060445Z AUTO 27007KT 240V300 CAVOK M04/M06 Q1031 NOSIG


Station Type Date Time Source
LHPR Decoded METAR 2021/03/06 04:45 UTC NOAA

Station name not available
Mar 05, 2021 - 11:45 PM EST / 2021.03.06 0445 UTC
Wind: from the W (270 degrees) at 8 MPH (7 KT) (direction variable):0
Visibility: greater than 7 mile(s):0
Temperature: 24 F (-4 C)
Windchill: 15 F (-9 C):1
Dew Point: 21 F (-6 C)
Relative Humidity: 85%
Pressure (altimeter): 30.45 in. Hg (1031 hPa)
ob: LHPR 060445Z AUTO 27007KT 240V300 CAVOK M04/M06 Q1031 NOSIG
cycle: 5

Station Type Date Time Source
LHPR TAF UTC NOAA

Error!

Example: see airport list